Johnston City, Illinois
Current Conditions -  °F | °C
As of 3:35 AM on Monday 24 Nov 2014 (Local Time) from KMWA Reporting Station
Overcast Overcast  
Wind Chill: 55°   Ceiling: 7000
Heat Index: 55°   Visibility: 10mi
Dew Point: 52°   Wind: 13mph
Humidity: 88%   Direction: 210°SSW
Pressure: 29.27"   Gusts: 21mph
Location:  37.82°N, 88.93°W
Report Text: KMWA 240935Z AUTO 21011G18KT 10SM SCT022 BKN070 OVC100 13/11 A2927 RMK AO2 P0003
Loading
Personal Weather Stations






























Interactive Weather Map New forecast layout! Learn more

10-Day Weather Forecast

Advertisements
Track Severe Weather on mobile